Time;durP1;ratioP1;P1;durP2;ratioP2;P2;SDS_P1;SDS_P2;PMS_P1;PMS_P2;Temp;Humidity;BMP_temperature;BMP_pressure;BME280_temperature;BME280_humidity;BME280_pressure;Samples;Min_cycle;Max_cycle;Signal;HPM_P1;HPM_P2
2021/10/16 00:02:00;;;;;;;16.55;3.30;;;;;;;6.81;100.00;101153.81;5035440;28;20084;-81
2021/10/16 00:04:27;;;;;;;21.85;3.10;;;;;;;6.75;100.00;101151.38;4991986;28;20112;-77
2021/10/16 00:06:54;;;;;;;12.98;2.50;;;;;;;6.67;100.00;101154.28;4991600;28;20160;-82
2021/10/16 00:09:22;;;;;;;21.50;4.45;;;;;;;6.71;100.00;101150.66;4987390;28;20064;-79
2021/10/16 00:11:49;;;;;;;20.23;2.70;;;;;;;6.82;100.00;101143.28;5005635;28;20544;-84
2021/10/16 00:14:16;;;;;;;26.10;3.05;;;;;;;6.72;100.00;101154.13;5007208;28;20504;-86
2021/10/16 00:16:43;;;;;;;17.40;2.50;;;;;;;6.72;100.00;101151.50;4996780;28;20116;-81
2021/10/16 00:19:10;;;;;;;17.58;3.65;;;;;;;6.67;100.00;101162.13;5006210;28;20060;-84
2021/10/16 00:21:38;;;;;;;19.35;3.28;;;;;;;6.61;100.00;101154.47;4994514;28;20132;-79
2021/10/16 00:24:06;;;;;;;18.02;2.78;;;;;;;6.71;100.00;101148.03;4988538;28;20049;-84
2021/10/16 00:26:33;;;;;;;13.82;2.85;;;;;;;6.63;100.00;101159.66;4993578;28;20049;-77
2021/10/16 00:29:00;;;;;;;21.15;3.75;;;;;;;6.67;100.00;101156.03;5007227;28;20463;-86
2021/10/16 00:31:27;;;;;;;19.02;3.40;;;;;;;6.57;100.00;101158.09;4991909;28;20038;-81
2021/10/16 00:33:55;;;;;;;19.20;3.85;;;;;;;6.59;100.00;101164.16;5019167;28;20569;-79
2021/10/16 00:36:22;;;;;;;19.15;3.53;;;;;;;6.53;100.00;101166.97;5001825;28;20147;-79
2021/10/16 00:38:50;;;;;;;22.50;3.42;;;;;;;6.35;100.00;101165.81;4976109;28;20069;-84
2021/10/16 00:41:17;;;;;;;14.52;3.55;;;;;;;6.57;100.00;101166.81;4975570;28;20136;-82
2021/10/16 00:43:44;;;;;;;24.35;3.65;;;;;;;6.48;100.00;101164.47;5008166;28;20063;-78
2021/10/16 00:46:12;;;;;;;18.15;4.13;;;;;;;6.48;100.00;101166.25;5008397;28;20132;-80
2021/10/16 00:48:39;;;;;;;23.50;4.03;;;;;;;6.56;100.00;101172.94;4982941;28;20076;-79
2021/10/16 00:51:06;;;;;;;22.75;3.55;;;;;;;6.51;100.00;101167.00;5019853;28;20228;-78
2021/10/16 00:53:34;;;;;;;24.38;3.75;;;;;;;6.57;100.00;101172.06;4976182;28;20076;-80
2021/10/16 00:56:01;;;;;;;19.92;4.15;;;;;;;6.62;100.00;101165.78;5006562;28;20144;-86
2021/10/16 00:58:28;;;;;;;19.55;3.55;;;;;;;6.40;100.00;101163.91;4988644;28;20526;-83
2021/10/16 01:00:55;;;;;;;20.92;3.28;;;;;;;6.41;100.00;101170.00;5014312;28;20145;-77
2021/10/16 01:03:23;;;;;;;14.20;2.70;;;;;;;6.57;100.00;101168.56;4995142;28;20152;-83
2021/10/16 01:05:50;;;;;;;22.48;2.90;;;;;;;6.55;100.00;101170.38;5024078;28;20104;-79
2021/10/16 01:08:17;;;;;;;13.00;3.53;;;;;;;6.60;100.00;101168.47;4996021;28;20200;-85
2021/10/16 01:10:45;;;;;;;14.52;3.40;;;;;;;6.53;100.00;101172.22;4977797;28;20080;-79
2021/10/16 01:13:13;;;;;;;26.10;3.33;;;;;;;6.55;100.00;101162.53;5033074;28;20072;-81
2021/10/16 01:15:41;;;;;;;15.02;3.85;;;;;;;6.51;100.00;101167.00;5011284;28;20142;-77
2021/10/16 01:18:08;;;;;;;17.65;3.60;;;;;;;6.31;100.00;101154.59;5011503;28;20145;-83
2021/10/16 01:20:38;;;;;;;23.98;3.75;;;;;;;6.24;100.00;101160.94;5013738;28;20050;-77
2021/10/16 01:23:05;;;;;;;17.30;3.50;;;;;;;6.26;100.00;101164.38;5011847;28;20141;-85
2021/10/16 01:25:33;;;;;;;25.25;3.45;;;;;;;6.33;100.00;101168.47;4997208;28;20140;-78
2021/10/16 01:28:01;;;;;;;22.52;3.70;;;;;;;6.24;100.00;101167.91;4978894;28;20050;-85
2021/10/16 01:30:29;;;;;;;21.40;3.55;;;;;;;6.35;100.00;101163.22;5002600;28;20079;-82
2021/10/16 01:32:56;;;;;;;17.95;3.72;;;;;;;6.22;100.00;101159.28;5011265;28;20053;-80
2021/10/16 01:35:23;;;;;;;18.92;4.07;;;;;;;6.27;100.00;101160.84;4992114;28;20071;-77
2021/10/16 01:37:50;;;;;;;19.55;3.40;;;;;;;6.33;100.00;101159.78;5001926;28;20463;-81
2021/10/16 01:40:18;;;;;;;22.35;3.65;;;;;;;6.32;100.00;101160.69;5016357;28;20132;-80
2021/10/16 01:42:45;;;;;;;22.05;3.53;;;;;;;6.39;100.00;101163.94;4976840;28;20129;-79
2021/10/16 01:45:14;;;;;;;21.10;3.67;;;;;;;6.23;100.00;101164.44;5008916;28;20153;-78
2021/10/16 01:47:54;;;;;;;23.02;3.83;;;;;;;6.31;100.00;101169.44;5003783;28;20103;-79
2021/10/16 01:50:22;;;;;;;15.82;3.45;;;;;;;6.36;100.00;101162.28;5020836;28;20120;-76
2021/10/16 01:52:49;;;;;;;20.50;3.63;;;;;;;6.34;100.00;101172.78;4983348;28;20046;-78
2021/10/16 01:55:16;;;;;;;15.52;3.55;;;;;;;6.36;100.00;101175.38;5007369;28;20064;-79
2021/10/16 01:57:45;;;;;;;26.08;4.13;;;;;;;6.17;100.00;101169.00;4997587;28;20077;-80
2021/10/16 02:00:13;;;;;;;16.45;3.88;;;;;;;6.24;100.00;101162.69;4992811;28;20136;-86
2021/10/16 02:02:40;;;;;;;21.00;3.85;;;;;;;6.24;100.00;101162.69;4999922;28;20132;-77
2021/10/16 02:05:07;;;;;;;22.27;3.70;;;;;;;6.25;100.00;101162.63;5007386;28;20038;-77
2021/10/16 02:07:35;;;;;;;21.00;3.45;;;;;;;6.33;100.00;101171.09;4985949;28;20053;-79
2021/10/16 02:10:02;;;;;;;34.15;5.10;;;;;;;6.28;100.00;101166.91;4977220;28;20073;-81
2021/10/16 02:12:29;;;;;;;25.48;4.10;;;;;;;6.32;100.00;101160.69;4993329;28;20153;-77
2021/10/16 02:14:57;;;;;;;26.27;5.45;;;;;;;6.25;100.00;101164.38;5007563;28;20137;-85
2021/10/16 02:17:24;;;;;;;38.38;5.25;;;;;;;6.23;100.00;101169.69;5029555;28;20069;-87
2021/10/16 02:19:51;;;;;;;30.38;6.75;;;;;;;6.18;100.00;101173.34;5013682;28;20140;-79
2021/10/16 02:22:18;;;;;;;22.13;6.57;;;;;;;6.27;100.00;101173.06;5017227;28;20045;-77
2021/10/16 02:24:45;;;;;;;28.92;6.88;;;;;;;6.27;100.00;101167.81;5027969;28;20056;-78
2021/10/16 02:27:13;;;;;;;25.35;6.63;;;;;;;6.19;100.00;101177.66;5019583;28;20088;-82
2021/10/16 02:29:40;;;;;;;28.38;5.95;;;;;;;6.23;100.00;101179.28;5015042;28;20113;-79
2021/10/16 02:32:07;;;;;;;20.30;7.38;;;;;;;6.25;100.00;101188.78;5018005;28;20041;-80
2021/10/16 02:34:36;;;;;;;31.10;8.00;;;;;;;6.46;100.00;101186.38;5035144;28;20477;-80
2021/10/16 02:37:03;;;;;;;30.52;6.95;;;;;;;6.26;100.00;101192.25;5014687;28;20136;-82
2021/10/16 02:39:30;;;;;;;27.55;6.82;;;;;;;6.15;100.00;101186.50;4993974;28;20052;-77
2021/10/16 02:41:59;;;;;;;25.52;5.97;;;;;;;6.34;100.00;101191.09;5009784;28;20510;-83
2021/10/16 02:44:27;;;;;;;24.75;7.32;;;;;;;6.20;100.00;101193.28;4977491;28;20056;-78
2021/10/16 02:46:54;;;;;;;24.48;7.10;;;;;;;6.21;100.00;101192.38;5012362;28;20053;-80
2021/10/16 02:49:21;;;;;;;28.38;7.60;;;;;;;6.18;100.00;101199.50;5008246;28;20188;-78
2021/10/16 02:51:49;;;;;;;21.08;6.07;;;;;;;6.19;100.00;101198.59;4995671;28;20140;-78
2021/10/16 02:54:16;;;;;;;18.05;5.47;;;;;;;6.27;100.00;101207.91;4988219;28;20737;-84
2021/10/16 02:56:43;;;;;;;19.98;5.45;;;;;;;6.25;100.00;101196.63;4995980;28;20176;-80
2021/10/16 02:59:11;;;;;;;25.67;5.85;;;;;;;6.12;100.00;101205.75;5007996;28;20132;-83
2021/10/16 03:01:38;;;;;;;18.00;5.60;;;;;;;6.07;100.00;101203.28;5031818;28;20095;-82
2021/10/16 03:04:05;;;;;;;21.98;5.15;;;;;;;6.08;100.00;101196.31;5005508;28;20060;-86
2021/10/16 03:06:32;;;;;;;18.35;4.47;;;;;;;6.20;100.00;101201.13;4996211;28;20053;-81
2021/10/16 03:08:59;;;;;;;29.92;6.05;;;;;;;6.11;100.00;101201.44;5008876;28;20041;-80
2021/10/16 03:11:27;;;;;;;24.75;5.47;;;;;;;6.20;100.00;101200.28;4993389;28;20181;-81
2021/10/16 03:13:54;;;;;;;27.35;5.75;;;;;;;6.17;100.00;101206.50;5018619;28;20068;-81
2021/10/16 03:16:23;;;;;;;21.60;5.57;;;;;;;6.27;100.00;101201.81;4997612;28;20050;-78
2021/10/16 03:18:52;;;;;;;19.33;4.65;;;;;;;6.16;100.00;101201.28;5009497;28;20057;-82
2021/10/16 03:21:20;;;;;;;18.38;4.97;;;;;;;6.19;100.00;101211.66;5000609;28;20585;-78
2021/10/16 03:23:48;;;;;;;33.22;6.55;;;;;;;6.24;100.00;101209.75;5010017;28;20125;-83
2021/10/16 03:26:16;;;;;;;21.13;5.82;;;;;;;6.23;100.00;101211.50;5001362;28;20123;-79
2021/10/16 03:28:44;;;;;;;22.15;5.22;;;;;;;6.32;100.00;101210.38;5006565;28;20120;-79
2021/10/16 03:31:11;;;;;;;18.73;4.15;;;;;;;6.38;100.00;101211.91;4992600;28;20133;-77
2021/10/16 03:33:38;;;;;;;28.77;4.15;;;;;;;6.49;100.00;101212.44;5009163;28;20689;-82
2021/10/16 03:36:06;;;;;;;17.60;3.88;;;;;;;6.65;100.00;101215.41;5022677;28;20061;-84
2021/10/16 03:38:33;;;;;;;16.52;3.95;;;;;;;6.77;100.00;101209.75;5003840;28;20133;-82
2021/10/16 03:41:01;;;;;;;13.57;3.65;;;;;;;6.73;100.00;101216.00;5006030;28;20141;-78
2021/10/16 03:43:28;;;;;;;17.80;4.40;;;;;;;6.63;100.00;101212.00;4993798;28;20265;-80
2021/10/16 03:45:55;;;;;;;22.92;4.53;;;;;;;6.72;100.00;101215.16;4993509;28;20053;-79
2021/10/16 03:48:22;;;;;;;19.10;5.00;;;;;;;6.79;100.00;101214.03;5027633;28;20519;-82
2021/10/16 03:50:49;;;;;;;18.83;4.07;;;;;;;6.95;100.00;101226.59;4995254;28;20046;-79
2021/10/16 03:53:17;;;;;;;14.07;3.83;;;;;;;6.96;100.00;101220.44;5008828;28;20104;-78
2021/10/16 03:55:45;;;;;;;15.52;4.40;;;;;;;7.03;100.00;101216.72;4990035;28;20088;-80
2021/10/16 03:58:12;;;;;;;22.70;6.10;;;;;;;7.17;100.00;101216.25;4994787;28;20567;-79
2021/10/16 04:00:39;;;;;;;25.33;7.00;;;;;;;7.09;100.00;101219.13;4977848;28;20465;-83
2021/10/16 04:03:06;;;;;;;23.05;6.18;;;;;;;7.04;100.00;101216.66;5004044;28;20141;-85
2021/10/16 04:05:34;;;;;;;18.77;6.18;;;;;;;7.21;100.00;101215.22;4975756;28;20216;-80
2021/10/16 04:08:01;;;;;;;29.63;6.28;;;;;;;7.21;100.00;101218.69;5010338;28;20053;-82
2021/10/16 04:10:31;;;;;;;19.98;5.85;;;;;;;7.23;100.00;101224.72;5003041;28;20405;-79
2021/10/16 04:12:58;;;;;;;16.38;4.75;;;;;;;7.29;100.00;101218.41;4996505;28;20132;-78
2021/10/16 04:15:25;;;;;;;28.02;5.13;;;;;;;7.54;100.00;101211.38;5027036;28;20408;-80
2021/10/16 04:17:52;;;;;;;19.42;4.10;;;;;;;7.41;100.00;101224.97;4994496;28;20184;-83
2021/10/16 04:20:21;;;;;;;14.50;3.50;;;;;;;7.36;100.00;101219.91;5024293;28;20120;-78
2021/10/16 04:22:48;;;;;;;19.15;4.38;;;;;;;7.52;100.00;101228.06;5010930;28;20065;-83
2021/10/16 04:25:15;;;;;;;25.90;4.25;;;;;;;7.29;100.00;101231.50;4998281;28;20053;-80
2021/10/16 04:27:43;;;;;;;29.63;3.75;;;;;;;7.34;100.00;101234.84;4993763;28;20161;-80
2021/10/16 04:30:11;;;;;;;20.27;3.47;;;;;;;7.38;100.00;101240.78;5006416;28;20125;-81
2021/10/16 04:32:38;;;;;;;19.60;3.35;;;;;;;7.43;100.00;101229.25;5017648;28;20053;-82
2021/10/16 04:35:06;;;;;;;20.77;3.35;;;;;;;7.47;100.00;101233.47;4988908;28;20087;-80
2021/10/16 04:37:34;;;;;;;13.93;4.32;;;;;;;7.24;100.00;101236.91;5014408;28;20084;-79
2021/10/16 04:40:40;;;;;;;33.35;4.50;;;;;;;7.48;100.00;101240.44;5010956;28;20096;-80
2021/10/16 04:43:02;;;;;;;19.20;4.00;;;;;;;7.13;100.00;101236.44;5004126;28;20468;-82
2021/10/16 04:45:32;;;;;;;24.92;4.82;;;;;;;7.26;100.00;101239.50;4999410;28;20519;-82
2021/10/16 04:48:00;;;;;;;23.23;5.15;;;;;;;7.32;100.00;101242.72;4999818;28;20128;-80
2021/10/16 04:50:27;;;;;;;21.38;3.75;;;;;;;7.44;100.00;101238.81;5019605;28;20083;-79
2021/10/16 04:52:54;;;;;;;18.08;3.22;;;;;;;7.52;100.00;101243.78;4997807;28;20045;-81
2021/10/16 04:55:23;;;;;;;20.00;5.13;;;;;;;7.47;100.00;101240.47;5008071;28;20051;-78
2021/10/16 04:57:50;;;;;;;16.92;3.25;;;;;;;7.50;100.00;101233.34;5012211;28;20124;-80
2021/10/16 05:00:18;;;;;;;15.73;3.30;;;;;;;7.69;100.00;101240.53;5008428;28;20053;-76
2021/10/16 05:02:45;;;;;;;14.93;3.42;;;;;;;7.75;100.00;101229.84;4996381;28;20142;-80
2021/10/16 05:05:12;;;;;;;22.40;3.38;;;;;;;7.71;100.00;101233.50;5008400;28;20065;-84
2021/10/16 05:07:39;;;;;;;14.35;3.00;;;;;;;7.67;100.00;101239.75;5040934;28;20103;-80
2021/10/16 05:10:07;;;;;;;21.92;4.13;;;;;;;7.65;100.00;101238.94;4994326;28;20046;-79
2021/10/16 05:12:34;;;;;;;19.08;3.35;;;;;;;7.65;100.00;101238.94;5001989;28;20137;-80
2021/10/16 05:15:01;;;;;;;14.85;2.72;;;;;;;7.79;100.00;101240.16;4985209;28;20536;-78
2021/10/16 05:17:30;;;;;;;13.43;2.80;;;;;;;7.72;100.00;101245.69;5015032;28;20053;-77
2021/10/16 05:19:57;;;;;;;15.23;3.35;;;;;;;7.66;100.00;101248.53;5014167;28;20045;-79
2021/10/16 05:22:28;;;;;;;11.80;2.42;;;;;;;7.74;100.00;101251.69;5039526;28;20261;-81
2021/10/16 05:24:55;;;;;;;25.33;4.07;;;;;;;7.75;100.00;101250.81;5019061;28;20491;-77
2021/10/16 05:27:22;;;;;;;14.40;3.00;;;;;;;7.74;100.00;101247.31;5008936;28;20079;-79
2021/10/16 05:29:49;;;;;;;14.02;3.35;;;;;;;7.64;100.00;101247.72;5009632;28;20048;-83
2021/10/16 05:32:16;;;;;;;19.23;3.17;;;;;;;7.31;100.00;101251.50;5029665;28;20064;-82
2021/10/16 05:34:43;;;;;;;26.65;3.47;;;;;;;7.58;100.00;101267.16;4990839;28;20046;-77
2021/10/16 05:37:11;;;;;;;26.77;4.35;;;;;;;7.41;100.00;101278.22;4976855;28;20484;-79
2021/10/16 05:39:39;;;;;;;16.38;2.72;;;;;;;7.50;100.00;101267.41;5009465;28;20165;-78
2021/10/16 05:42:07;;;;;;;15.57;3.10;;;;;;;7.52;100.00;101264.72;5031988;28;20081;-77
2021/10/16 05:44:35;;;;;;;24.35;3.90;;;;;;;7.68;100.00;101262.41;4993072;28;20577;-78
2021/10/16 05:47:02;;;;;;;12.45;2.63;;;;;;;7.68;100.00;101273.75;4997513;28;20053;-81
2021/10/16 05:49:29;;;;;;;14.98;2.95;;;;;;;7.48;100.00;101276.25;4992592;28;20053;-78
2021/10/16 05:51:56;;;;;;;19.80;3.55;;;;;;;7.48;100.00;101287.59;4996595;28;20048;-79
2021/10/16 05:54:24;;;;;;;25.27;3.50;;;;;;;7.56;100.00;101289.91;5006183;28;20059;-80
2021/10/16 05:56:51;;;;;;;17.95;3.15;;;;;;;7.60;100.00;101287.13;5028404;28;20140;-80
2021/10/16 05:59:18;;;;;;;17.67;3.33;;;;;;;7.67;100.00;101297.41;4996938;28;20064;-77
2021/10/16 06:01:47;;;;;;;13.85;2.92;;;;;;;7.73;100.00;101300.66;5015805;28;20400;-78
2021/10/16 06:04:15;;;;;;;20.08;3.45;;;;;;;7.71;100.00;101305.09;4993722;28;20376;-83
2021/10/16 06:06:42;;;;;;;22.00;3.35;;;;;;;7.67;100.00;101298.25;5000466;28;20046;-82
2021/10/16 06:09:09;;;;;;;17.45;3.65;;;;;;;7.76;100.00;101308.41;4992476;28;20492;-83
2021/10/16 06:11:36;;;;;;;13.23;3.50;;;;;;;7.88;100.00;101304.50;4979502;28;20124;-76
2021/10/16 06:14:04;;;;;;;11.43;2.30;;;;;;;7.83;100.00;101302.03;5025616;28;20049;-81
2021/10/16 06:16:31;;;;;;;14.52;3.33;;;;;;;7.87;100.00;101298.38;4993792;28;20102;-79
2021/10/16 06:19:03;;;;;;;20.77;3.80;;;;;;;7.87;100.00;101303.63;5012285;28;20053;-83
2021/10/16 06:21:31;;;;;;;13.00;2.75;;;;;;;7.94;100.00;101306.88;4990069;28;20050;-80
2021/10/16 06:23:58;;;;;;;14.02;2.97;;;;;;;8.09;100.00;101301.03;4994775;28;20132;-80
2021/10/16 06:26:25;;;;;;;19.67;3.85;;;;;;;8.10;100.00;101299.28;4995156;28;20048;-79
2021/10/16 06:28:52;;;;;;;21.63;3.58;;;;;;;8.07;100.00;101309.91;5012256;28;20049;-82
2021/10/16 06:31:19;;;;;;;18.10;4.05;;;;;;;7.67;100.00;101319.22;5029057;28;20057;-79
2021/10/16 06:33:47;;;;;;;23.02;4.30;;;;;;;7.71;100.00;101319.97;4987426;28;20140;-78
2021/10/16 06:36:14;;;;;;;15.95;3.55;;;;;;;7.62;100.00;101326.41;5010166;28;20144;-76
2021/10/16 06:38:44;;;;;;;20.60;4.20;;;;;;;7.76;100.00;101332.00;4994050;28;20060;-78
2021/10/16 06:41:11;;;;;;;14.40;3.75;;;;;;;8.06;100.00;101322.16;5010312;28;20245;-81
2021/10/16 06:43:38;;;;;;;22.85;3.70;;;;;;;8.20;100.00;101324.25;4989766;28;20148;-78
2021/10/16 06:46:05;;;;;;;16.15;3.10;;;;;;;8.29;100.00;101323.91;4992006;28;20513;-78
2021/10/16 06:48:32;;;;;;;15.25;3.40;;;;;;;8.24;100.00;101315.38;5011083;28;20033;-77
2021/10/16 06:51:00;;;;;;;16.23;3.03;;;;;;;8.45;100.00;101323.34;4974420;28;20046;-79
2021/10/16 06:53:27;;;;;;;15.32;2.80;;;;;;;8.45;100.00;101326.81;5008113;28;20068;-82
2021/10/16 06:55:54;;;;;;;19.92;4.28;;;;;;;8.15;100.00;101328.84;4989291;28;20056;-78
2021/10/16 06:58:21;;;;;;;21.85;2.95;;;;;;;8.34;100.00;101332.47;5010106;28;20433;-80
2021/10/16 07:00:48;;;;;;;19.75;3.50;;;;;;;8.49;100.00;101330.19;5029083;28;20143;-80
2021/10/16 07:03:16;;;;;;;14.45;3.50;;;;;;;8.41;100.00;101332.25;4999725;28;20077;-88
2021/10/16 07:05:44;;;;;;;19.38;3.78;;;;;;;8.46;100.00;101328.53;5011511;28;20029;-79
2021/10/16 07:08:11;;;;;;;20.05;3.90;;;;;;;8.57;100.00;101339.47;5012437;28;20062;-83
2021/10/16 07:10:38;;;;;;;15.23;3.50;;;;;;;8.46;100.00;101349.50;5013081;28;20419;-79
2021/10/16 07:13:06;;;;;;;15.05;2.97;;;;;;;8.99;100.00;101345.69;5009610;28;20142;-83
2021/10/16 07:15:33;;;;;;;18.77;3.88;;;;;;;9.55;100.00;101345.09;5010554;28;20037;-80
2021/10/16 07:18:00;;;;;;;14.80;3.13;;;;;;;10.67;99.60;101358.44;5029730;28;20500;-84
2021/10/16 07:20:28;;;;;;;13.10;2.95;;;;;;;11.34;94.18;101352.50;5008882;28;20116;-79
2021/10/16 07:22:55;;;;;;;11.73;2.83;;;;;;;12.80;86.62;101353.53;4995494;28;20061;-79
2021/10/16 07:25:22;;;;;;;16.60;2.92;;;;;;;12.63;83.78;101354.47;5012376;28;20045;-82
2021/10/16 07:27:54;;;;;;;10.68;2.40;;;;;;;12.68;82.34;101357.72;5012433;28;20392;-80
2021/10/16 07:30:21;;;;;;;11.70;3.20;;;;;;;15.31;71.37;101351.28;4996317;28;20096;-81
2021/10/16 07:32:49;;;;;;;8.15;2.50;;;;;;;16.48;64.63;101352.88;4999183;28;20065;-77
2021/10/16 07:35:17;;;;;;;8.32;3.03;;;;;;;17.76;58.72;101347.75;5014387;28;20056;-81
2021/10/16 07:37:44;;;;;;;14.02;4.40;;;;;;;19.48;54.22;101342.66;5018832;28;20128;-79
2021/10/16 07:40:12;;;;;;;9.52;3.47;;;;;;;19.27;52.63;101345.31;5001032;28;20053;-77
2021/10/16 07:42:39;;;;;;;11.15;3.75;;;;;;;19.26;52.54;101350.78;5013283;28;20628;-81
2021/10/16 07:45:06;;;;;;;15.48;3.38;;;;;;;19.11;51.54;101344.94;5013678;28;20041;-79
2021/10/16 07:47:34;;;;;;;12.80;2.92;;;;;;;19.63;50.56;101344.06;5012933;28;20129;-81
2021/10/16 07:50:04;;;;;;;11.15;2.70;;;;;;;20.50;48.97;101351.63;5008041;28;20132;-76
2021/10/16 07:52:32;;;;;;;10.35;2.40;;;;;;;20.31;47.73;101352.41;5003769;28;20136;-85
2021/10/16 07:55:00;;;;;;;9.82;3.03;;;;;;;20.20;48.03;101356.00;5014182;28;20451;-81
2021/10/16 07:57:27;;;;;;;10.70;2.47;;;;;;;21.51;45.37;101358.47;4995833;28;20564;-80
2021/10/16 07:59:54;;;;;;;11.32;3.20;;;;;;;19.56;48.77;101355.38;5008844;28;20084;-80
2021/10/16 08:02:21;;;;;;;12.32;2.55;;;;;;;20.23;47.21;101350.41;5011965;28;20208;-84
2021/10/16 08:04:48;;;;;;;19.73;2.70;;;;;;;21.13;45.50;101362.00;4990479;28;20036;-74
2021/10/16 08:07:16;;;;;;;10.20;3.10;;;;;;;19.90;47.95;101356.00;4981913;28;20057;-81
2021/10/16 08:09:43;;;;;;;10.32;2.90;;;;;;;17.56;54.10;101361.72;4987646;28;20045;-78
2021/10/16 08:12:10;;;;;;;10.85;2.78;;;;;;;15.66;60.80;101368.34;5008408;28;20500;-81
2021/10/16 08:14:37;;;;;;;17.63;3.47;;;;;;;15.42;62.38;101362.88;5012031;28;20049;-81
2021/10/16 08:17:05;;;;;;;10.77;2.85;;;;;;;14.11;68.07;101371.38;5015707;28;20038;-79
2021/10/16 08:19:34;;;;;;;13.82;3.67;;;;;;;13.32;71.61;101372.56;5011612;28;20538;-80
2021/10/16 08:22:02;;;;;;;11.25;3.03;;;;;;;12.98;74.57;101371.00;4999825;28;20072;-79
2021/10/16 08:24:29;;;;;;;18.52;3.10;;;;;;;12.63;78.27;101379.09;4959993;28;20053;-77
2021/10/16 08:26:57;;;;;;;11.90;3.20;;;;;;;13.83;72.99;101374.84;5003578;28;20069;-82
2021/10/16 08:29:26;;;;;;;9.73;3.25;;;;;;;14.18;71.07;101380.63;4995813;28;20137;-78
2021/10/16 08:31:53;;;;;;;8.80;3.15;;;;;;;14.74;68.91;101376.22;4984679;28;20099;-78
2021/10/16 08:34:20;;;;;;;12.40;3.30;;;;;;;15.89;63.13;101376.53;4998714;28;20493;-78
2021/10/16 08:36:48;;;;;;;12.13;2.40;;;;;;;15.04;64.67;101376.06;5022525;28;20136;-80
2021/10/16 08:39:15;;;;;;;13.35;3.03;;;;;;;14.34;68.70;101380.53;4997302;28;20152;-85
2021/10/16 08:41:44;;;;;;;13.77;2.80;;;;;;;14.65;68.22;101382.97;5011818;28;20454;-75
2021/10/16 08:44:11;;;;;;;15.43;3.10;;;;;;;14.11;70.21;101382.81;5016464;28;20076;-83
2021/10/16 08:46:41;;;;;;;12.18;3.35;;;;;;;12.98;74.00;101389.50;5016665;28;20103;-79
2021/10/16 08:49:14;;;;;;;12.13;3.10;;;;;;;12.18;79.71;101389.53;5019762;28;20076;-79
2021/10/16 08:51:42;;;;;;;13.73;3.00;;;;;;;12.07;82.23;101387.47;5012009;28;20045;-75
2021/10/16 08:54:10;;;;;;;12.77;3.75;;;;;;;12.24;82.22;101381.28;4998719;28;20041;-84
2021/10/16 08:56:38;;;;;;;14.70;3.30;;;;;;;12.26;80.86;101384.72;5012073;28;20111;-78
2021/10/16 08:59:05;;;;;;;14.02;4.00;;;;;;;11.94;82.91;101386.41;5000841;28;20515;-80
2021/10/16 09:01:32;;;;;;;10.55;2.67;;;;;;;12.13;80.86;101382.72;5038420;28;20110;-83
2021/10/16 09:04:00;;;;;;;14.77;2.63;;;;;;;12.30;78.23;101380.97;5044354;28;20077;-78
2021/10/16 09:06:35;;;;;;;12.70;2.55;;;;;;;12.27;79.85;101381.13;5023406;28;20052;-81
2021/10/16 09:09:03;;;;;;;12.63;3.30;;;;;;;12.29;80.78;101389.78;5022226;28;20068;-88
2021/10/16 09:11:49;;;;;;;11.95;2.90;;;;;;;12.31;80.92;101391.44;5038142;28;20047;-80
2021/10/16 09:14:32;;;;;;;13.13;3.47;;;;;;;12.72;80.01;101390.09;5015191;28;20071;-79
2021/10/16 09:17:15;;;;;;;;;;;;;;;;;;;;;
2021/10/16 09:19:46;;;;;;;7.85;2.30;;;;;;;13.00;77.07;101392.88;5017888;28;20034;-80
2021/10/16 09:22:23;;;;;;;9.65;2.55;;;;;;;13.13;75.18;101393.91;5025895;28;20425;-78
2021/10/16 09:24:56;;;;;;;9.30;3.03;;;;;;;13.65;74.10;101393.53;4998178;28;20080;-79
2021/10/16 09:27:28;;;;;;;8.73;2.50;;;;;;;13.79;73.00;101391.88;4961144;28;20484;-79
2021/10/16 09:30:06;;;;;;;11.48;2.80;;;;;;;13.45;72.00;101398.28;4980416;28;20471;-78
2021/10/16 09:32:56;;;;;;;14.48;2.80;;;;;;;13.42;73.29;101399.34;4987473;28;20053;-77
2021/10/16 09:35:34;;;;;;;11.10;2.45;;;;;;;14.17;70.12;101395.66;4986242;28;20457;-79
2021/10/16 09:38:04;;;;;;;7.45;2.28;;;;;;;14.54;67.84;101393.38;4999738;28;20056;-76
2021/10/16 09:40:40;;;;;;;8.90;2.53;;;;;;;14.54;67.35;101400.50;5002511;28;20037;-78
2021/10/16 09:43:20;;;;;;;8.32;2.08;;;;;;;13.96;69.68;101394.34;5014592;28;20050;-82
2021/10/16 09:46:12;;;;;;;8.52;2.53;;;;;;;13.15;71.05;101392.03;5000212;28;20053;-81
2021/10/16 09:49:09;;;;;;;17.13;2.60;;;;;;;13.16;69.57;101393.72;5017236;28;20141;-85
2021/10/16 09:51:50;;;;;;;12.80;2.90;;;;;;;13.35;70.07;101388.25;4963673;28;20048;-78
2021/10/16 09:54:17;;;;;;;10.63;2.13;;;;;;;13.50;68.47;101393.59;5007703;28;20072;-81
2021/10/16 09:56:48;;;;;;;10.77;1.90;;;;;;;13.15;67.16;101392.03;5015750;28;20537;-79
2021/10/16 09:59:19;;;;;;;14.35;2.53;;;;;;;12.39;70.81;101391.03;4994939;28;20045;-77
2021/10/16 10:01:56;;;;;;;13.65;3.40;;;;;;;12.23;72.96;101390.13;5015691;28;20040;-82
2021/10/16 10:04:28;;;;;;;11.73;2.13;;;;;;;12.61;70.60;101388.91;5010195;28;20029;-78
2021/10/16 10:06:58;;;;;;;14.50;2.83;;;;;;;12.80;69.37;101387.91;4972878;28;20034;-82
2021/10/16 10:09:46;;;;;;;11.77;2.75;;;;;;;12.72;69.52;101395.38;5011074;28;20077;-79
2021/10/16 10:12:20;;;;;;;13.02;2.65;;;;;;;12.56;69.43;101393.59;5000106;28;20045;-80
2021/10/16 10:15:00;;;;;;;10.20;2.67;;;;;;;12.39;69.68;101388.38;4997911;28;20048;-77
2021/10/16 10:17:44;;;;;;;5.88;1.63;;;;;;;12.75;68.27;101393.44;4979989;28;20030;-83
2021/10/16 10:20:18;;;;;;;9.07;2.35;;;;;;;12.50;68.50;101390.44;5027316;28;20037;-78
2021/10/16 10:22:51;;;;;;;11.32;1.90;;;;;;;12.55;69.00;101391.88;4983121;28;20067;-81
2021/10/16 10:25:32;;;;;;;18.90;2.47;;;;;;;12.66;68.82;101399.22;4978732;28;20049;-78
2021/10/16 10:28:04;;;;;;;8.60;2.42;;;;;;;13.03;68.58;101392.72;5007633;28;20048;-83
2021/10/16 10:30:42;;;;;;;8.07;2.28;;;;;;;13.30;67.51;101394.75;4961704;28;20507;-80
2021/10/16 10:33:16;;;;;;;9.32;2.47;;;;;;;13.29;67.49;101395.72;4977818;28;20050;-82
2021/10/16 10:35:52;;;;;;;10.18;2.45;;;;;;;13.03;70.35;101394.53;5012184;28;20056;-77
2021/10/16 10:38:39;;;;;;;14.40;2.85;;;;;;;13.72;68.13;101391.38;5005611;28;20107;-78
2021/10/16 10:41:35;;;;;;;10.85;2.58;;;;;;;14.14;65.04;101398.50;5014423;28;20055;-78
2021/10/16 10:44:11;;;;;;;14.68;2.53;;;;;;;14.09;65.03;101394.44;5006659;28;20053;-85
2021/10/16 10:47:28;;;;;;;7.65;1.83;;;;;;;14.20;63.97;101389.34;5002572;28;20065;-83
2021/10/16 10:50:03;;;;;;;8.15;2.38;;;;;;;14.02;63.51;101386.03;4999218;28;20041;-81
2021/10/16 10:53:10;;;;;;;7.82;1.70;;;;;;;13.33;65.89;101382.22;4987824;28;20045;-81
2021/10/16 10:55:58;;;;;;;7.57;2.03;;;;;;;13.26;67.20;101380.84;4976714;28;20041;-80
2021/10/16 10:58:53;;;;;;;4.85;1.88;;;;;;;13.62;65.58;101385.78;4991007;28;20099;-79
2021/10/16 11:01:44;;;;;;;11.20;2.28;;;;;;;13.66;65.23;101381.16;5011584;28;20061;-80
2021/10/16 11:04:43;;;;;;;11.10;1.52;;;;;;;13.05;68.58;101377.63;4991972;28;20053;-86
2021/10/16 11:07:13;;;;;;;8.02;2.03;;;;;;;13.05;68.15;101380.25;4993043;28;20075;-76
2021/10/16 11:09:41;;;;;;;7.05;1.58;;;;;;;12.66;68.49;101380.75;5010607;28;20512;-80
2021/10/16 11:12:10;;;;;;;10.77;2.33;;;;;;;12.37;68.22;101377.88;5007269;28;20081;-80
2021/10/16 11:14:40;;;;;;;7.20;2.03;;;;;;;12.47;67.48;101370.31;5012340;28;20092;-79
2021/10/16 11:17:12;;;;;;;9.23;1.92;;;;;;;12.64;66.18;101370.22;5012856;28;20054;-82
2021/10/16 11:19:53;;;;;;;7.53;2.25;;;;;;;12.55;65.78;101365.47;4975890;28;20145;-77
2021/10/16 11:22:39;;;;;;;5.07;1.70;;;;;;;12.92;65.73;101359.00;4992130;28;20131;-76
2021/10/16 11:25:06;;;;;;;5.68;1.80;;;;;;;13.40;64.32;101356.25;4989367;28;20045;-78
2021/10/16 11:27:34;;;;;;;9.65;2.30;;;;;;;13.77;62.84;101354.03;5007088;28;20403;-79
2021/10/16 11:30:16;;;;;;;11.60;2.15;;;;;;;13.78;62.13;101355.72;5012413;28;20104;-76
2021/10/16 11:32:44;;;;;;;11.02;2.78;;;;;;;13.70;61.78;101355.38;5010156;28;20827;-82